createdAt,value
2022-08-09T00:01:24.888Z,4.32
2022-08-09T00:04:06.131Z,4.90
2022-08-09T00:06:23.091Z,3.80
2022-08-09T00:08:33.012Z,3.90
2022-08-09T00:10:41.528Z,4.55
2022-08-09T00:12:52.504Z,4.40
2022-08-09T00:15:06.638Z,4.00
2022-08-09T00:18:05.734Z,4.20
2022-08-09T00:19:42.997Z,4.25
2022-08-09T00:21:57.066Z,4.80
2022-08-09T00:24:05.400Z,4.30
2022-08-09T00:26:14.489Z,4.50
2022-08-09T00:28:27.200Z,4.00
2022-08-09T00:30:35.216Z,3.97
2022-08-09T00:32:43.206Z,3.78
2022-08-09T00:34:54.480Z,4.63
2022-08-09T00:37:02.441Z,4.40
2022-08-09T00:39:10.948Z,4.43
2022-08-09T00:44:16.716Z,4.20
2022-08-09T00:44:20.482Z,4.60
2022-08-09T00:46:57.054Z,4.57
2022-08-09T00:49:02.303Z,4.05
2022-08-09T00:51:13.027Z,4.90
2022-08-09T00:53:23.943Z,4.78
2022-08-09T00:56:03.380Z,4.05
2022-08-09T00:58:00.704Z,4.80
2022-08-09T01:00:21.589Z,4.53
2022-08-09T01:02:34.133Z,4.18
2022-08-09T01:04:51.860Z,5.30
2022-08-09T01:07:09.157Z,4.65
2022-08-09T01:09:36.642Z,4.65
2022-08-09T01:11:59.752Z,4.93
2022-08-09T01:14:16.251Z,4.20
2022-08-09T01:16:29.890Z,4.70
2022-08-09T01:18:40.637Z,5.25
2022-08-09T01:21:03.074Z,4.97
2022-08-09T01:24:03.566Z,4.95
2022-08-09T01:25:58.686Z,4.65
2022-08-09T01:28:12.354Z,5.53
2022-08-09T01:30:28.665Z,5.13
2022-08-09T01:32:47.481Z,4.88
2022-08-09T01:34:58.067Z,5.15
2022-08-09T01:37:09.358Z,4.93
2022-08-09T01:39:19.299Z,4.95
2022-08-09T01:41:33.521Z,4.90
2022-08-09T01:43:51.875Z,4.50
2022-08-09T01:46:00.481Z,5.03
2022-08-09T01:48:10.117Z,5.00
2022-08-09T01:50:30.000Z,5.20
2022-08-09T01:52:46.718Z,4.60
2022-08-09T01:55:01.908Z,5.15
2022-08-09T01:57:14.870Z,4.60
2022-08-09T01:59:32.456Z,5.35
2022-08-09T02:01:58.094Z,5.03
2022-08-09T02:04:09.790Z,5.13
2022-08-09T02:06:45.296Z,5.15
2022-08-09T02:09:02.219Z,4.88
2022-08-09T02:11:17.188Z,5.70
2022-08-09T02:13:40.346Z,5.30
2022-08-09T02:15:55.263Z,5.43
2022-08-09T02:18:10.555Z,5.00
2022-08-09T02:20:26.540Z,4.72
2022-08-09T02:22:45.706Z,5.40
2022-08-09T02:24:57.087Z,5.72
2022-08-09T02:27:08.948Z,4.97
2022-08-09T02:29:23.708Z,5.45
2022-08-09T02:31:38.830Z,4.90
2022-08-09T02:34:06.406Z,5.60
2022-08-09T02:36:21.128Z,5.75
2022-08-09T02:38:32.062Z,5.25
2022-08-09T02:40:44.254Z,5.28
2022-08-09T02:42:54.207Z,4.72
2022-08-09T02:45:07.031Z,5.32
2022-08-09T02:47:19.632Z,5.45
2022-08-09T02:49:38.964Z,5.85
2022-08-09T02:51:54.192Z,5.70
2022-08-09T02:54:05.669Z,5.10
2022-08-09T02:56:15.498Z,5.00
2022-08-09T02:58:36.039Z,5.60
2022-08-09T03:00:58.702Z,4.88
2022-08-09T03:03:10.441Z,5.25
2022-08-09T03:05:20.260Z,5.28
2022-08-09T03:07:28.769Z,5.18
2022-08-09T03:09:42.779Z,5.90
2022-08-09T03:12:09.780Z,5.30
2022-08-09T03:14:26.579Z,5.53
2022-08-09T03:16:41.636Z,4.68
2022-08-09T03:18:55.723Z,5.85
2022-08-09T03:21:05.279Z,5.78
2022-08-09T03:23:14.762Z,6.00
2022-08-09T03:25:56.948Z,5.93
2022-08-09T03:28:26.206Z,5.25
2022-08-09T03:30:33.394Z,5.80
2022-08-09T03:32:45.711Z,5.90
2022-08-09T03:34:56.436Z,6.60
2022-08-09T03:37:10.795Z,6.47
2022-08-09T03:39:37.803Z,6.18
2022-08-09T03:41:48.727Z,5.95
2022-08-09T03:44:08.163Z,5.53
2022-08-09T03:46:19.835Z,6.22
2022-08-09T03:48:30.924Z,5.43
2022-08-09T03:50:44.213Z,6.18
2022-08-09T03:52:53.803Z,7.18
2022-08-09T03:55:07.713Z,5.57
2022-08-09T03:57:20.535Z,5.90
2022-08-09T03:59:53.230Z,5.80
2022-08-09T04:01:59.531Z,6.15
2022-08-09T04:04:14.753Z,6.30
2022-08-09T04:06:25.777Z,6.20
2022-08-09T04:08:33.677Z,6.32
2022-08-09T04:10:41.699Z,6.78
2022-08-09T04:12:51.562Z,6.93
2022-08-09T04:15:01.598Z,6.55
2022-08-09T04:17:10.909Z,5.60
2022-08-09T04:19:42.782Z,6.75
2022-08-09T04:21:53.944Z,5.90
2022-08-09T04:24:01.740Z,6.65
2022-08-09T04:26:11.481Z,6.78
2022-08-09T04:28:31.424Z,7.20
2022-08-09T04:30:44.967Z,6.68
2022-08-09T04:32:54.185Z,6.65
2022-08-09T04:35:02.148Z,6.28
2022-08-09T04:37:13.908Z,6.85
2022-08-09T04:39:23.987Z,6.95
2022-08-09T04:41:43.441Z,6.53
2022-08-09T04:44:05.054Z,6.60
2022-08-09T04:46:36.524Z,6.28
2022-08-09T04:48:50.464Z,6.40
2022-08-09T04:51:06.339Z,6.50
2022-08-09T04:53:17.085Z,6.25
2022-08-09T04:55:25.912Z,6.13
2022-08-09T04:57:58.828Z,6.78
2022-08-09T05:00:05.015Z,7.38
2022-08-09T05:02:14.185Z,6.70
2022-08-09T05:04:30.833Z,5.30
2022-08-09T05:06:39.308Z,5.30
2022-08-09T05:09:00.451Z,6.30
2022-08-09T05:11:09.434Z,5.50
2022-08-09T05:13:19.892Z,5.33
2022-08-09T05:15:38.433Z,5.47
2022-08-09T05:18:38.601Z,5.37
2022-08-09T05:20:19.057Z,5.30
2022-08-09T05:22:33.562Z,4.73
2022-08-09T05:24:57.444Z,7.17
2022-08-09T05:27:09.033Z,5.97
2022-08-09T05:29:24.054Z,4.93
2022-08-09T05:31:37.107Z,6.03
2022-08-09T05:33:54.363Z,4.87
2022-08-09T05:36:04.898Z,5.57
2022-08-09T05:38:21.635Z,5.60
2022-08-09T05:40:34.408Z,5.87
2022-08-09T05:42:42.294Z,5.80
2022-08-09T05:44:50.481Z,5.93
2022-08-09T05:46:59.157Z,6.00
2022-08-09T05:49:07.375Z,5.40
2022-08-09T05:51:42.701Z,6.57
2022-08-09T05:53:57.692Z,5.67
2022-08-09T05:56:09.254Z,6.70
2022-08-09T05:58:25.835Z,4.90
2022-08-09T06:00:35.332Z,5.43
2022-08-09T06:02:46.629Z,5.60
2022-08-09T06:04:55.833Z,4.60
2022-08-09T06:07:03.802Z,4.80
2022-08-09T06:09:23.147Z,5.20
2022-08-09T06:11:57.314Z,4.80
2022-08-09T06:14:07.009Z,5.20
2022-08-09T06:16:18.550Z,4.60
2022-08-09T06:18:27.769Z,4.87
2022-08-09T06:20:37.264Z,5.30
2022-08-09T06:22:52.025Z,5.17
2022-08-09T06:25:01.127Z,5.10
2022-08-09T06:27:16.182Z,5.10
2022-08-09T06:29:29.440Z,5.27
2022-08-09T06:31:39.666Z,6.17
2022-08-09T06:34:06.717Z,4.53
2022-08-09T06:36:15.420Z,5.10
2022-08-09T06:38:32.201Z,5.40
2022-08-09T06:40:47.887Z,5.50
2022-08-09T06:43:07.793Z,5.07
2022-08-09T06:46:05.575Z,5.00
2022-08-09T06:47:48.677Z,5.07
2022-08-09T06:50:14.025Z,5.57
2022-08-09T06:52:25.205Z,4.70
2022-08-09T06:54:33.200Z,5.80
2022-08-09T06:56:46.173Z,5.13
2022-08-09T07:00:52.842Z,4.57
2022-08-09T07:01:27.472Z,5.10
2022-08-09T07:03:53.153Z,4.43
2022-08-09T07:06:06.028Z,5.27
2022-08-09T07:08:16.077Z,4.87
2022-08-09T07:10:29.746Z,5.00
2022-08-09T07:12:40.953Z,4.23
2022-08-09T07:14:53.634Z,4.53
2022-08-09T07:17:04.000Z,4.70
2022-08-09T07:19:23.045Z,6.63
2022-08-09T07:21:31.769Z,4.60
2022-08-09T07:23:56.758Z,6.63
2022-08-09T07:26:06.796Z,4.17
2022-08-09T07:28:18.953Z,4.33
2022-08-09T07:30:32.962Z,4.33
2022-08-09T07:32:41.076Z,4.90
2022-08-09T07:34:52.296Z,4.20
2022-08-09T07:37:02.521Z,4.50
2022-08-09T07:39:11.884Z,4.00
2022-08-09T07:41:32.870Z,4.17
2022-08-09T07:43:49.917Z,4.10
2022-08-09T07:46:08.357Z,3.90
2022-08-09T07:48:25.311Z,4.67
2022-08-09T07:50:40.685Z,4.23
2022-08-09T07:53:02.815Z,4.47
2022-08-09T07:55:16.754Z,3.97
2022-08-09T07:57:33.854Z,5.30
2022-08-09T07:59:52.083Z,4.77
2022-08-09T08:02:26.672Z,4.43
2022-08-09T08:04:40.989Z,4.87
2022-08-09T08:07:00.157Z,4.83
2022-08-09T08:09:39.774Z,5.13
2022-08-09T08:12:09.954Z,5.30
2022-08-09T08:14:13.639Z,4.90
2022-08-09T08:16:31.865Z,5.40
2022-08-09T08:18:43.246Z,5.67
2022-08-09T08:20:54.196Z,5.40
2022-08-09T08:23:16.763Z,5.77
2022-08-09T08:25:25.462Z,6.20
2022-08-09T08:27:52.064Z,5.60
2022-08-09T08:30:04.337Z,5.72
2022-08-09T08:32:12.927Z,5.03
2022-08-09T08:34:36.481Z,5.20
2022-08-09T08:36:45.696Z,5.45
2022-08-09T08:38:56.255Z,5.00
2022-08-09T08:41:05.759Z,5.07
2022-08-09T08:43:14.498Z,5.15
2022-08-09T08:45:37.289Z,5.15
2022-08-09T08:47:47.808Z,5.10
2022-08-09T08:50:02.860Z,4.87
2022-08-09T08:52:20.325Z,5.80
2022-08-09T08:54:40.548Z,4.60
2022-08-09T08:56:52.780Z,5.05
2022-08-09T08:59:00.818Z,4.63
2022-08-09T09:01:20.819Z,5.32
2022-08-09T09:03:38.227Z,4.53
2022-08-09T09:05:59.118Z,5.43
2022-08-09T09:08:30.065Z,4.90
2022-08-09T09:10:42.293Z,5.00
2022-08-09T09:12:51.899Z,4.87
2022-08-09T09:15:06.713Z,4.77
2022-08-09T09:17:16.265Z,5.20
2022-08-09T09:19:41.607Z,4.90
2022-08-09T09:22:03.939Z,5.70
2022-08-09T09:24:21.544Z,4.80
2022-08-09T09:26:29.875Z,5.20
2022-08-09T09:29:04.284Z,5.00
2022-08-09T09:31:09.543Z,4.77
2022-08-09T09:33:44.973Z,4.47
2022-08-09T09:36:11.611Z,4.50
2022-08-09T09:38:48.316Z,4.83
2022-08-09T09:40:56.352Z,4.33
2022-08-09T09:43:06.452Z,4.73
2022-08-09T09:45:26.910Z,4.57
2022-08-09T09:47:42.138Z,5.00
2022-08-09T09:50:14.058Z,4.50
2022-08-09T09:52:36.147Z,4.33
2022-08-09T09:54:48.763Z,4.80
2022-08-09T09:58:00.961Z,4.30
2022-08-09T09:59:45.092Z,4.53
2022-08-09T10:02:02.633Z,4.30
2022-08-09T10:04:22.862Z,4.40
2022-08-09T10:06:46.795Z,3.90
2022-08-09T10:09:21.680Z,4.63
2022-08-09T10:11:59.105Z,5.13
2022-08-09T10:14:03.150Z,4.70
2022-08-09T10:16:57.102Z,4.17
2022-08-09T10:18:54.417Z,4.10
2022-08-09T10:21:10.187Z,3.60
2022-08-09T10:23:22.076Z,3.83
2022-08-09T10:25:34.917Z,3.83
2022-08-09T10:28:02.109Z,4.20
2022-08-09T10:32:03.812Z,3.77
2022-08-09T10:32:42.609Z,4.13
2022-08-09T10:34:51.562Z,3.80
2022-08-09T10:37:02.136Z,4.43
2022-08-09T10:39:15.397Z,3.73
2022-08-09T10:41:26.216Z,4.13
2022-08-09T10:43:58.727Z,4.40
2022-08-09T10:46:54.294Z,3.90
2022-08-09T10:49:12.000Z,4.03
2022-08-09T10:51:41.036Z,4.33
2022-08-09T10:53:58.375Z,4.27
2022-08-09T10:56:23.285Z,4.17
2022-08-09T10:58:37.437Z,3.77
2022-08-09T11:01:35.853Z,4.30
2022-08-09T11:03:46.911Z,4.00
2022-08-09T11:06:26.273Z,3.90
2022-08-09T11:08:47.502Z,3.70
2022-08-09T11:11:08.585Z,4.93
2022-08-09T11:13:49.396Z,3.60
2022-08-09T11:16:04.521Z,3.43
2022-08-09T11:18:49.418Z,3.80
2022-08-09T11:21:01.477Z,3.63
2022-08-09T11:23:10.515Z,4.17
2022-08-09T11:25:19.268Z,3.50
2022-08-09T11:28:08.032Z,3.20
2022-08-09T11:30:04.702Z,4.13
2022-08-09T11:32:44.076Z,3.63
2022-08-09T11:34:54.616Z,4.80
2022-08-09T11:37:07.122Z,3.60
2022-08-09T11:39:16.660Z,3.50
2022-08-09T11:41:37.468Z,2.93
2022-08-09T11:43:52.148Z,3.07
2022-08-09T11:46:01.584Z,3.10
2022-08-09T11:48:26.802Z,2.73
2022-08-09T11:52:48.826Z,3.10
2022-08-09T11:54:01.597Z,3.20
2022-08-09T11:56:41.468Z,3.20
2022-08-09T11:58:53.994Z,3.50
2022-08-09T12:01:08.891Z,3.83
2022-08-09T12:03:55.099Z,3.73
2022-08-09T12:05:58.375Z,3.80
2022-08-09T12:08:12.241Z,3.33
2022-08-09T12:10:39.626Z,3.73
2022-08-09T12:12:52.925Z,3.90
2022-08-09T12:15:08.519Z,3.60
2022-08-09T12:17:28.257Z,3.50
2022-08-09T12:19:47.815Z,3.70
2022-08-09T12:22:03.913Z,3.50
2022-08-09T12:24:14.183Z,3.20
2022-08-09T12:26:25.896Z,3.80
2022-08-09T12:29:13.811Z,3.73
2022-08-09T12:31:02.967Z,3.30
2022-08-09T12:33:19.953Z,3.90
2022-08-09T12:35:37.828Z,3.50
2022-08-09T12:37:51.586Z,4.03
2022-08-09T12:40:09.251Z,4.43
2022-08-09T12:42:18.020Z,4.20
2022-08-09T12:44:26.266Z,3.87
2022-08-09T12:46:50.082Z,3.73
2022-08-09T12:49:00.246Z,3.57
2022-08-09T12:51:11.410Z,4.00
2022-08-09T12:53:37.681Z,4.10
2022-08-09T12:56:15.327Z,3.63
2022-08-09T12:58:24.459Z,3.50
2022-08-09T13:00:44.884Z,3.27
2022-08-09T13:02:57.360Z,3.30
2022-08-09T13:05:06.635Z,3.00
2022-08-09T13:07:28.475Z,3.00
2022-08-09T13:09:55.938Z,2.83
2022-08-09T13:12:10.278Z,3.40
2022-08-09T13:14:42.308Z,3.33
2022-08-09T13:16:54.686Z,2.83
2022-08-09T13:19:10.429Z,2.53
2022-08-09T13:22:36.844Z,2.90
2022-08-09T13:24:15.736Z,3.10
2022-08-09T13:26:42.679Z,3.00
2022-08-09T13:29:06.417Z,2.77
2022-08-09T13:32:17.314Z,2.93
2022-08-09T13:33:53.263Z,2.97
2022-08-09T13:36:39.505Z,3.60
2022-08-09T13:38:55.805Z,2.63
2022-08-09T13:41:57.708Z,4.43
2022-08-09T13:43:53.656Z,2.80
2022-08-09T13:46:43.688Z,2.87
2022-08-09T13:48:29.921Z,3.27
2022-08-09T13:50:38.018Z,2.80
2022-08-09T13:52:47.676Z,2.60
2022-08-09T13:55:00.100Z,2.67
2022-08-09T13:57:14.434Z,3.07
2022-08-09T13:59:42.089Z,3.60
2022-08-09T14:02:01.186Z,2.60
2022-08-09T14:04:11.551Z,3.13
2022-08-09T14:06:26.612Z,2.70
2022-08-09T14:08:38.225Z,3.00
2022-08-09T14:10:52.599Z,3.33
2022-08-09T14:13:03.880Z,3.63
2022-08-09T14:16:10.241Z,2.80
2022-08-09T14:18:16.755Z,2.83
2022-08-09T14:20:15.987Z,2.40
2022-08-09T14:22:28.184Z,5.07
2022-08-09T14:24:36.153Z,3.50
2022-08-09T14:26:51.241Z,2.60
2022-08-09T14:29:07.494Z,2.97
2022-08-09T14:31:16.265Z,2.50
2022-08-09T14:33:24.082Z,2.50
2022-08-09T14:35:38.764Z,2.57
2022-08-09T14:38:02.641Z,2.50
2022-08-09T14:40:13.866Z,3.03
2022-08-09T14:42:31.618Z,2.90
2022-08-09T14:44:59.631Z,2.87
2022-08-09T14:47:26.315Z,3.10
2022-08-09T14:49:40.022Z,2.93
2022-08-09T14:51:58.355Z,2.83
2022-08-09T14:54:09.260Z,3.67
2022-08-09T14:56:17.483Z,2.70
2022-08-09T14:58:29.579Z,2.40
2022-08-09T15:00:42.330Z,2.27
2022-08-09T15:02:52.200Z,2.53
2022-08-09T15:05:00.112Z,2.50
2022-08-09T15:07:10.174Z,2.57
2022-08-09T15:09:30.391Z,2.40
2022-08-09T15:11:49.760Z,2.60
2022-08-09T15:14:04.228Z,2.57
2022-08-09T15:16:15.477Z,2.27
2022-08-09T15:18:27.266Z,2.40
2022-08-09T15:21:55.261Z,2.73
2022-08-09T15:24:02.278Z,2.80
2022-08-09T15:25:41.314Z,2.90
2022-08-09T15:28:00.620Z,2.93
2022-08-09T15:30:59.835Z,2.60
2022-08-09T15:32:42.091Z,2.93
2022-08-09T15:34:53.671Z,2.70
2022-08-09T15:37:03.879Z,2.70
2022-08-09T15:39:12.536Z,2.90
2022-08-09T15:41:31.798Z,2.60
2022-08-09T15:43:41.874Z,2.10
2022-08-09T15:45:52.018Z,3.30
2022-08-09T15:48:29.297Z,2.73
2022-08-09T15:50:43.496Z,2.20
2022-08-09T15:52:55.020Z,2.67
2022-08-09T15:55:20.095Z,2.60
2022-08-09T15:57:34.179Z,3.30
2022-08-09T15:59:48.435Z,2.40
2022-08-09T16:02:01.625Z,2.90
2022-08-09T16:04:13.764Z,2.90
2022-08-09T16:06:34.816Z,3.40
2022-08-09T16:08:44.423Z,2.63
2022-08-09T16:10:57.667Z,2.57
2022-08-09T16:13:18.590Z,4.77
2022-08-09T16:16:10.160Z,2.63
2022-08-09T16:17:57.767Z,2.60
2022-08-09T16:20:15.437Z,4.10
2022-08-09T16:22:23.633Z,3.00
2022-08-09T16:24:34.291Z,3.10
2022-08-09T16:26:42.705Z,3.73
2022-08-09T16:28:56.740Z,4.13
2022-08-09T16:31:05.548Z,2.80
2022-08-09T16:33:24.318Z,2.50
2022-08-09T16:35:57.024Z,3.40
2022-08-09T16:38:04.032Z,4.63
2022-08-09T16:40:14.420Z,2.40
2022-08-09T16:42:38.215Z,2.40
2022-08-09T16:44:46.586Z,2.87
2022-08-09T16:47:04.044Z,3.33
2022-08-09T16:50:30.528Z,3.07
2022-08-09T16:51:53.969Z,3.30
2022-08-09T16:54:26.275Z,2.70
2022-08-09T16:56:31.480Z,2.70
2022-08-09T16:58:42.744Z,2.90
2022-08-09T17:00:57.851Z,3.70
2022-08-09T17:03:05.747Z,2.90
2022-08-09T17:05:19.999Z,2.67
2022-08-09T17:08:43.524Z,2.97
2022-08-09T17:10:03.886Z,2.60
2022-08-09T17:12:12.217Z,2.73
2022-08-09T17:14:28.004Z,2.80
2022-08-09T17:16:38.019Z,3.07
2022-08-09T17:18:46.345Z,3.10
2022-08-09T17:20:55.980Z,2.97
2022-08-09T17:23:10.580Z,2.90
2022-08-09T17:25:23.873Z,2.83
2022-08-09T17:27:31.875Z,2.90
2022-08-09T17:29:41.235Z,2.90
2022-08-09T17:31:53.600Z,2.80
2022-08-09T17:34:01.491Z,3.17
2022-08-09T17:36:14.703Z,3.13
2022-08-09T17:38:32.635Z,2.97
2022-08-09T17:40:47.620Z,3.17
2022-08-09T17:42:59.769Z,3.20
2022-08-09T17:45:27.106Z,3.00
2022-08-09T17:47:49.253Z,2.80
2022-08-09T17:50:07.445Z,2.90
2022-08-09T17:52:22.650Z,3.03
2022-08-09T17:54:33.262Z,3.00
2022-08-09T17:56:43.561Z,2.77
2022-08-09T17:58:52.959Z,3.00
2022-08-09T18:01:01.537Z,3.20
2022-08-09T18:03:10.185Z,2.67
2022-08-09T18:05:23.619Z,4.17
2022-08-09T18:07:48.700Z,2.77
2022-08-09T18:10:05.087Z,3.30
2022-08-09T18:12:19.383Z,3.40
2022-08-09T18:14:29.398Z,2.87
2022-08-09T18:16:51.201Z,3.53
2022-08-09T18:20:56.854Z,2.90
2022-08-09T18:21:41.212Z,3.13
2022-08-09T18:24:10.375Z,3.10
2022-08-09T18:26:20.975Z,2.90
2022-08-09T18:30:42.771Z,3.43
2022-08-09T18:31:01.298Z,3.30
2022-08-09T18:33:12.755Z,3.40
2022-08-09T18:35:59.234Z,3.40
2022-08-09T18:37:54.658Z,4.53
2022-08-09T18:40:02.904Z,3.20
2022-08-09T18:42:15.697Z,4.03
2022-08-09T18:44:25.466Z,3.22
2022-08-09T18:46:47.971Z,3.30
2022-08-09T18:49:04.335Z,3.33
2022-08-09T18:51:12.780Z,3.38
2022-08-09T18:53:22.542Z,3.30
2022-08-09T18:55:45.555Z,3.95
2022-08-09T18:58:06.960Z,3.55
2022-08-09T19:00:20.432Z,3.60
2022-08-09T19:02:33.148Z,3.53
2022-08-09T19:04:41.147Z,3.80
2022-08-09T19:06:55.243Z,3.40
2022-08-09T19:09:07.656Z,3.95
2022-08-09T19:11:23.817Z,3.50
2022-08-09T19:13:51.197Z,3.63
2022-08-09T19:15:59.627Z,3.40
2022-08-09T19:18:16.888Z,3.67
2022-08-09T19:20:25.229Z,4.55
2022-08-09T19:22:34.058Z,6.40
2022-08-09T19:25:12.084Z,4.00
2022-08-09T19:27:10.881Z,3.20
2022-08-09T19:29:24.596Z,3.70
2022-08-09T19:31:45.306Z,4.00
2022-08-09T19:33:56.849Z,3.65
2022-08-09T19:36:11.636Z,3.45
2022-08-09T19:38:25.214Z,3.40
2022-08-09T19:40:39.056Z,3.50
2022-08-09T19:42:57.271Z,3.33
2022-08-09T19:45:25.886Z,3.70
2022-08-09T19:47:47.355Z,3.80
2022-08-09T19:50:48.207Z,3.35
2022-08-09T19:52:23.719Z,3.53
2022-08-09T19:54:32.107Z,3.88
2022-08-09T19:56:44.647Z,4.25
2022-08-09T19:59:18.592Z,3.55
2022-08-09T20:01:28.553Z,3.85
2022-08-09T20:04:24.115Z,3.60
2022-08-09T20:06:29.764Z,4.82
2022-08-09T20:08:39.274Z,4.00
2022-08-09T20:10:47.888Z,3.33
2022-08-09T20:12:56.570Z,4.10
2022-08-09T20:16:31.840Z,4.03
2022-08-09T20:17:41.466Z,3.63
2022-08-09T20:19:56.741Z,4.10
2022-08-09T20:22:04.860Z,4.13
2022-08-09T20:24:29.128Z,4.03
2022-08-09T20:26:37.925Z,3.78
2022-08-09T20:28:48.222Z,3.47
2022-08-09T20:30:58.665Z,3.83
2022-08-09T20:33:18.356Z,4.25
2022-08-09T20:35:27.158Z,3.45
2022-08-09T20:38:23.423Z,4.30
2022-08-09T20:40:15.152Z,4.00
2022-08-09T20:42:59.411Z,3.30
2022-08-09T20:45:59.345Z,3.83
2022-08-09T20:47:47.876Z,3.97
2022-08-09T20:49:59.204Z,3.67
2022-08-09T20:52:07.826Z,4.10
2022-08-09T20:54:22.068Z,4.45
2022-08-09T20:56:32.728Z,3.72
2022-08-09T20:58:43.503Z,3.53
2022-08-09T21:01:14.077Z,3.70
2022-08-09T21:03:19.975Z,3.70
2022-08-09T21:05:53.797Z,4.25
2022-08-09T21:08:00.385Z,3.58
2022-08-09T21:10:11.984Z,3.50
2022-08-09T21:12:20.455Z,3.58
2022-08-09T21:14:31.139Z,3.50
2022-08-09T21:16:39.314Z,3.92
2022-08-09T21:20:02.550Z,4.55
2022-08-09T21:21:18.046Z,3.80
2022-08-09T21:23:47.278Z,4.13
2022-08-09T21:25:59.439Z,3.92
2022-08-09T21:28:11.813Z,5.35
2022-08-09T21:30:22.389Z,3.65
2022-08-09T21:32:33.829Z,3.60
2022-08-09T21:34:48.225Z,3.88
2022-08-09T21:36:59.318Z,3.75
2022-08-09T21:39:21.849Z,3.58
2022-08-09T21:42:05.685Z,3.55
2022-08-09T21:44:05.037Z,3.53
2022-08-09T21:46:13.676Z,3.75
2022-08-09T21:48:21.652Z,3.72
2022-08-09T21:50:35.793Z,3.60
2022-08-09T21:52:50.718Z,3.60
2022-08-09T21:55:04.314Z,3.63
2022-08-09T21:57:37.071Z,3.55
2022-08-09T21:59:42.748Z,3.90
2022-08-09T22:02:00.476Z,3.92
2022-08-09T22:04:09.382Z,4.18
2022-08-09T22:06:17.930Z,4.03
2022-08-09T22:08:32.522Z,4.20
2022-08-09T22:11:00.388Z,4.00
2022-08-09T22:13:11.608Z,4.00
2022-08-09T22:15:23.543Z,3.30
2022-08-09T22:17:46.236Z,4.15
2022-08-09T22:19:58.983Z,4.10
2022-08-09T22:22:08.108Z,4.03
2022-08-09T22:24:24.244Z,4.80
2022-08-09T22:26:37.631Z,3.72
2022-08-09T22:28:53.007Z,4.75
2022-08-09T22:31:02.370Z,4.05
2022-08-09T22:33:10.536Z,4.10
2022-08-09T22:35:59.854Z,4.05
2022-08-09T22:37:46.260Z,5.10
2022-08-09T22:39:58.983Z,4.38
2022-08-09T22:42:21.082Z,4.68
2022-08-09T22:44:32.811Z,4.47
2022-08-09T22:48:15.792Z,4.57
2022-08-09T22:49:10.652Z,4.85
2022-08-09T22:51:23.934Z,4.90
2022-08-09T22:53:44.394Z,4.78
2022-08-09T22:56:30.373Z,4.75
2022-08-09T22:58:32.834Z,4.57
2022-08-09T23:00:41.265Z,5.28
2022-08-09T23:02:50.118Z,4.80
2022-08-09T23:04:58.603Z,5.00
2022-08-09T23:08:21.062Z,7.00
2022-08-09T23:09:46.891Z,5.13
2022-08-09T23:11:57.302Z,5.28
2022-08-09T23:14:09.918Z,5.10
2022-08-09T23:16:20.647Z,5.05
2022-08-09T23:18:28.505Z,4.80
2022-08-09T23:20:36.377Z,5.30
2022-08-09T23:22:44.549Z,5.00
2022-08-09T23:24:52.478Z,4.80
2022-08-09T23:27:03.107Z,8.25
2022-08-09T23:29:13.856Z,4.80
2022-08-09T23:31:21.978Z,5.20
2022-08-09T23:33:29.878Z,4.75
2022-08-09T23:36:05.148Z,4.60
2022-08-09T23:38:05.575Z,5.47
2022-08-09T23:40:14.666Z,4.75
2022-08-09T23:42:25.079Z,4.57
2022-08-09T23:44:33.024Z,4.97
2022-08-09T23:46:41.429Z,4.95
2022-08-09T23:48:51.545Z,4.93
2022-08-09T23:50:59.376Z,4.63
2022-08-09T23:53:07.522Z,5.20
2022-08-09T23:55:18.247Z,4.95
2022-08-09T23:57:31.092Z,5.60
